Time,TemperatureF,DewpointF,PressureIn,WindDirection,WindDirectionDegrees,WindSpeedMPH,WindSpeedGustMPH,Humidity,HourlyPrecipIn,Conditions,Clouds,dailyrainin,SoftwareType,DateUTC
2013-01-29 00:00:00,46.5,42.3,29.66,ESE,113,0.0,0.0,85,0.00,,,0.16,WUHU216HW,2013-01-29 05:00:00,
2013-01-29 00:01:00,46.5,42.3,29.66,ESE,113,0.0,0.0,85,0.00,,,0.16,WUHU216HW,2013-01-29 05:01:00,
2013-01-29 00:03:00,46.5,42.3,29.65,ESE,113,0.0,0.0,85,0.00,,,0.00,WUHU216HW,2013-01-29 05:03:00,
2013-01-29 00:08:00,46.7,42.5,29.65,ESE,113,0.0,0.0,85,0.00,,,0.00,WUHU216HW,2013-01-29 05:08:00,
2013-01-29 00:13:00,46.9,42.6,29.66,ESE,113,0.0,0.0,85,0.00,,,0.00,WUHU216HW,2013-01-29 05:13:00,
2013-01-29 00:18:00,47.1,42.8,29.66,ESE,113,0.0,0.0,85,0.00,,,0.00,WUHU216HW,2013-01-29 05:18:00,
2013-01-29 00:23:00,47.3,43.0,29.66,SE,135,0.0,0.0,85,0.00,,,0.00,WUHU216HW,2013-01-29 05:23:00,
2013-01-29 00:28:00,47.4,42.8,29.66,SE,135,0.0,0.0,84,0.00,,,0.00,WUHU216HW,2013-01-29 05:28:00,
2013-01-29 00:33:00,47.8,43.2,29.66,SE,135,0.0,0.0,84,0.00,,,0.00,WUHU216HW,2013-01-29 05:33:00,
2013-01-29 00:38:00,48.0,43.3,29.66,SE,135,0.0,0.0,84,0.00,,,0.00,WUHU216HW,2013-01-29 05:38:00,
2013-01-29 00:43:00,48.0,43.3,29.66,SE,135,0.0,0.0,84,0.00,,,0.00,WUHU216HW,2013-01-29 05:43:00,
2013-01-29 00:48:00,48.0,43.3,29.65,SE,135,0.0,0.0,84,0.00,,,0.00,WUHU216HW,2013-01-29 05:48:00,
2013-01-29 00:53:00,48.0,43.0,29.65,SE,135,0.0,0.0,83,0.00,,,0.00,WUHU216HW,2013-01-29 05:53:00,
2013-01-29 00:58:00,48.0,43.3,29.65,SE,135,0.0,0.0,84,0.00,,,0.00,WUHU216HW,2013-01-29 05:58:00,
2013-01-29 01:03:00,48.0,43.3,29.65,SE,135,0.0,0.0,84,0.00,,,0.00,WUHU216HW,2013-01-29 06:03:00,
2013-01-29 01:08:00,48.0,43.3,29.65,SE,135,0.0,0.0,84,0.00,,,0.00,WUHU216HW,2013-01-29 06:08:00,
2013-01-29 01:13:00,48.2,43.2,29.65,SE,135,0.0,0.0,83,0.00,,,0.00,WUHU216HW,2013-01-29 06:13:00,
2013-01-29 01:18:00,48.2,43.2,29.65,SE,135,0.0,0.0,83,0.00,,,0.00,WUHU216HW,2013-01-29 06:18:00,
2013-01-29 01:23:00,48.2,43.2,29.65,SE,135,0.0,0.0,83,0.00,,,0.00,WUHU216HW,2013-01-29 06:23:00,
2013-01-29 01:28:00,48.0,43.0,29.65,SE,135,0.0,0.0,83,0.00,,,0.00,WUHU216HW,2013-01-29 06:28:00,
2013-01-29 01:33:00,48.0,43.0,29.65,SE,135,0.0,0.0,83,0.00,,,0.00,WUHU216HW,2013-01-29 06:33:00,
2013-01-29 01:38:00,47.8,43.2,29.66,SE,135,0.0,0.0,84,0.00,,,0.00,WUHU216HW,2013-01-29 06:38:00,
2013-01-29 01:43:00,47.6,42.8,29.66,SE,135,0.0,0.0,84,0.00,,,0.00,WUHU216HW,2013-01-29 06:43:00,
2013-01-29 01:48:00,47.4,42.8,29.65,SE,135,0.0,0.0,84,0.00,,,0.00,WUHU216HW,2013-01-29 06:48:00,
2013-01-29 01:53:00,47.3,42.7,29.66,SE,135,0.0,0.0,84,0.00,,,0.00,WUHU216HW,2013-01-29 06:53:00,
2013-01-29 01:58:00,47.4,42.8,29.65,SE,135,0.0,0.0,84,0.00,,,0.00,WUHU216HW,2013-01-29 06:58:00,
2013-01-29 02:03:00,47.3,42.7,29.65,SE,135,0.0,0.0,84,0.00,,,0.00,WUHU216HW,2013-01-29 07:03:00,
2013-01-29 02:08:00,47.3,42.7,29.65,SE,135,0.0,0.0,84,0.00,,,0.00,WUHU216HW,2013-01-29 07:08:00,
2013-01-29 02:13:00,47.3,42.7,29.66,SE,135,0.0,0.0,84,0.00,,,0.00,WUHU216HW,2013-01-29 07:13:00,
2013-01-29 02:18:00,47.3,42.7,29.66,SE,135,0.0,0.0,84,0.00,,,0.00,WUHU216HW,2013-01-29 07:18:00,
2013-01-29 02:23:00,47.3,43.0,29.66,SE,135,0.0,0.0,85,0.00,,,0.00,WUHU216HW,2013-01-29 07:23:00,
2013-01-29 02:28:00,47.4,43.1,29.65,SE,135,0.0,0.0,85,0.00,,,0.00,WUHU216HW,2013-01-29 07:28:00,
2013-01-29 02:33:00,47.4,43.1,29.66,SE,135,0.0,0.0,85,0.00,,,0.00,WUHU216HW,2013-01-29 07:33:00,
2013-01-29 02:38:00,47.4,42.8,29.66,SE,135,0.0,0.0,84,0.00,,,0.00,WUHU216HW,2013-01-29 07:38:00,
2013-01-29 02:44:00,47.4,43.1,29.66,SE,135,0.0,0.0,85,0.00,,,0.00,WUHU216HW,2013-01-29 07:44:00,
2013-01-29 02:49:00,47.3,42.7,29.66,SE,135,0.0,0.0,84,0.00,,,0.00,WUHU216HW,2013-01-29 07:49:00,
2013-01-29 02:54:00,47.3,42.7,29.66,SE,135,0.0,0.0,84,0.00,,,0.00,WUHU216HW,2013-01-29 07:54:00,
2013-01-29 02:59:00,47.3,43.0,29.66,SE,135,0.0,0.0,85,0.00,,,0.00,WUHU216HW,2013-01-29 07:59:00,
2013-01-29 03:04:00,47.3,43.0,29.66,SE,135,0.0,0.0,85,0.00,,,0.00,WUHU216HW,2013-01-29 08:04:00,
2013-01-29 03:09:00,47.3,43.0,29.66,SE,135,0.0,0.0,85,0.00,,,0.00,WUHU216HW,2013-01-29 08:09:00,
2013-01-29 03:14:00,47.3,43.0,29.66,SE,135,0.0,0.0,85,0.00,,,0.00,WUHU216HW,2013-01-29 08:14:00,
2013-01-29 03:19:00,47.3,43.0,29.66,SE,135,0.0,0.0,85,0.00,,,0.00,WUHU216HW,2013-01-29 08:19:00,
2013-01-29 03:24:00,47.1,42.8,29.66,SE,135,0.0,0.0,85,0.00,,,0.00,WUHU216HW,2013-01-29 08:24:00,
2013-01-29 03:29:00,47.1,42.8,29.66,SE,135,0.0,0.0,85,0.00,,,0.00,WUHU216HW,2013-01-29 08:29:00,
2013-01-29 03:34:00,47.1,42.8,29.66,SE,135,0.0,0.0,85,0.00,,,0.00,WUHU216HW,2013-01-29 08:34:00,
2013-01-29 03:39:00,46.9,42.6,29.66,SE,135,0.0,0.0,85,0.00,,,0.00,WUHU216HW,2013-01-29 08:39:00,
2013-01-29 03:44:00,46.9,42.6,29.66,SE,135,0.0,0.0,85,0.00,,,0.00,WUHU216HW,2013-01-29 08:44:00,
2013-01-29 03:49:00,46.9,42.9,29.66,SE,135,0.0,0.0,86,0.00,,,0.00,WUHU216HW,2013-01-29 08:49:00,
2013-01-29 03:54:00,46.9,42.9,29.66,SE,135,0.0,0.0,86,0.00,,,0.00,WUHU216HW,2013-01-29 08:54:00,
2013-01-29 03:59:00,46.9,42.9,29.66,SE,135,0.0,0.0,86,0.00,,,0.00,WUHU216HW,2013-01-29 08:59:00,
2013-01-29 04:04:00,46.9,42.9,29.66,SE,135,0.0,0.0,86,0.00,,,0.00,WUHU216HW,2013-01-29 09:04:00,
2013-01-29 04:09:00,46.9,42.9,29.66,SE,135,0.0,0.0,86,0.00,,,0.00,WUHU216HW,2013-01-29 09:09:00,
2013-01-29 04:14:00,46.9,42.9,29.66,SE,135,0.0,0.0,86,0.00,,,0.00,WUHU216HW,2013-01-29 09:14:00,
2013-01-29 04:19:00,46.9,42.9,29.66,SE,135,0.0,0.0,86,0.00,,,0.00,WUHU216HW,2013-01-29 09:19:00,
2013-01-29 04:24:00,47.1,43.1,29.66,SE,135,0.0,0.0,86,0.00,,,0.00,WUHU216HW,2013-01-29 09:24:00,
2013-01-29 04:29:00,46.9,42.9,29.66,SE,135,0.0,0.0,86,0.00,,,0.00,WUHU216HW,2013-01-29 09:29:00,
2013-01-29 04:34:00,46.9,42.9,29.66,SE,135,0.0,0.0,86,0.00,,,0.00,WUHU216HW,2013-01-29 09:34:00,
2013-01-29 04:39:00,46.9,42.9,29.66,SE,135,0.0,0.0,86,0.00,,,0.00,WUHU216HW,2013-01-29 09:39:00,
2013-01-29 04:44:00,47.1,43.1,29.67,SE,135,0.0,0.0,86,0.00,,,0.00,WUHU216HW,2013-01-29 09:44:00,
2013-01-29 04:49:00,47.1,43.4,29.67,SE,135,0.0,0.0,87,0.00,,,0.00,WUHU216HW,2013-01-29 09:49:00,
2013-01-29 04:54:00,47.1,43.4,29.67,SE,135,0.0,0.0,87,0.00,,,0.00,WUHU216HW,2013-01-29 09:54:00,
2013-01-29 04:59:00,47.3,43.6,29.66,SE,135,0.0,0.0,87,0.00,,,0.00,WUHU216HW,2013-01-29 09:59:00,
2013-01-29 05:04:00,47.4,43.8,29.66,SE,135,0.0,0.0,87,0.00,,,0.00,WUHU216HW,2013-01-29 10:04:00,
2013-01-29 05:09:00,47.6,43.9,29.67,SE,135,0.0,0.0,87,0.00,,,0.00,WUHU216HW,2013-01-29 10:09:00,
2013-01-29 05:14:00,47.4,43.8,29.66,SE,135,0.0,0.0,87,0.00,,,0.00,WUHU216HW,2013-01-29 10:14:00,
2013-01-29 05:19:00,47.4,43.5,29.67,SE,135,0.0,0.0,86,0.00,,,0.00,WUHU216HW,2013-01-29 10:19:00,
2013-01-29 05:24:00,47.3,43.3,29.67,SE,135,0.0,0.0,86,0.00,,,0.00,WUHU216HW,2013-01-29 10:24:00,
2013-01-29 05:29:00,47.3,43.3,29.67,SE,135,0.0,0.0,86,0.00,,,0.00,WUHU216HW,2013-01-29 10:29:00,
2013-01-29 05:34:00,47.1,43.1,29.67,SE,135,0.0,0.0,86,0.00,,,0.00,WUHU216HW,2013-01-29 10:34:00,
2013-01-29 05:39:00,47.1,43.1,29.67,SE,135,0.0,0.0,86,0.00,,,0.00,WUHU216HW,2013-01-29 10:39:00,
2013-01-29 05:44:00,46.9,43.3,29.67,SE,135,0.0,0.0,87,0.00,,,0.00,WUHU216HW,2013-01-29 10:44:00,
2013-01-29 05:49:00,46.9,43.3,29.68,SE,135,0.0,0.0,87,0.00,,,0.00,WUHU216HW,2013-01-29 10:49:00,
2013-01-29 05:54:00,46.7,43.1,29.67,SE,135,0.0,0.0,87,0.00,,,0.00,WUHU216HW,2013-01-29 10:54:00,
2013-01-29 05:59:00,46.7,43.1,29.68,SE,135,0.0,0.0,87,0.00,,,0.00,WUHU216HW,2013-01-29 10:59:00,
2013-01-29 06:04:00,46.7,43.1,29.68,SE,135,0.0,0.0,87,0.00,,,0.00,WUHU216HW,2013-01-29 11:04:00,
2013-01-29 06:09:00,46.5,42.9,29.68,SE,135,0.0,0.0,87,0.00,,,0.00,WUHU216HW,2013-01-29 11:09:00,
2013-01-29 06:14:00,46.5,42.9,29.68,SE,135,0.0,0.0,87,0.00,,,0.00,WUHU216HW,2013-01-29 11:14:00,
2013-01-29 06:19:00,46.5,42.9,29.68,SE,135,0.0,0.0,87,0.00,,,0.00,WUHU216HW,2013-01-29 11:19:00,
2013-01-29 06:24:00,46.5,42.9,29.67,ESE,113,0.0,0.0,87,0.00,,,0.00,WUHU216HW,2013-01-29 11:24:00,
2013-01-29 06:29:00,46.7,43.4,29.68,ESE,113,0.0,0.0,88,0.00,,,0.00,WUHU216HW,2013-01-29 11:29:00,
2013-01-29 06:34:00,46.7,43.4,29.68,ESE,113,0.0,0.0,88,0.00,,,0.00,WUHU216HW,2013-01-29 11:34:00,
2013-01-29 06:39:00,46.5,43.2,29.69,ESE,113,0.0,0.0,88,0.00,,,0.00,WUHU216HW,2013-01-29 11:39:00,
2013-01-29 06:44:00,46.5,43.2,29.68,ESE,113,0.0,0.0,88,0.00,,,0.00,WUHU216HW,2013-01-29 11:44:00,
2013-01-29 06:49:00,46.5,43.2,29.68,ESE,113,0.0,0.0,88,0.00,,,0.00,WUHU216HW,2013-01-29 11:49:00,
2013-01-29 06:54:00,46.2,42.9,29.68,ESE,113,0.0,0.0,88,0.00,,,0.00,WUHU216HW,2013-01-29 11:54:00,
2013-01-29 06:59:00,46.2,42.9,29.68,ESE,113,0.0,0.0,88,0.00,,,0.00,WUHU216HW,2013-01-29 11:59:00,
2013-01-29 07:04:00,46.0,42.7,29.68,ESE,113,0.0,0.0,88,0.00,,,0.00,WUHU216HW,2013-01-29 12:04:00,
2013-01-29 07:09:00,46.0,42.7,29.68,ESE,113,0.0,0.0,88,0.00,,,0.00,WUHU216HW,2013-01-29 12:09:00,
2013-01-29 07:14:00,46.0,42.7,29.68,ESE,113,0.0,0.0,88,0.00,,,0.00,WUHU216HW,2013-01-29 12:14:00,
2013-01-29 07:19:00,46.0,42.7,29.68,ESE,113,0.0,0.0,88,0.00,,,0.00,WUHU216HW,2013-01-29 12:19:00,
2013-01-29 07:24:00,46.0,42.7,29.68,ESE,113,0.0,0.0,88,0.00,,,0.00,WUHU216HW,2013-01-29 12:24:00,
2013-01-29 07:29:00,46.0,42.7,29.69,ESE,113,0.0,0.0,88,0.00,,,0.00,WUHU216HW,2013-01-29 12:29:00,
2013-01-29 07:34:00,46.0,42.7,29.69,ESE,113,0.0,0.0,88,0.00,,,0.00,WUHU216HW,2013-01-29 12:34:00,
2013-01-29 07:39:00,46.0,42.7,29.69,ESE,113,0.0,0.0,88,0.00,,,0.00,WUHU216HW,2013-01-29 12:39:00,
2013-01-29 07:44:00,46.2,43.2,29.69,ESE,113,0.0,0.0,89,0.00,,,0.00,WUHU216HW,2013-01-29 12:44:00,
2013-01-29 07:49:00,46.5,43.2,29.70,ESE,113,0.0,0.0,89,0.00,,,0.00,WUHU216HW,2013-01-29 12:49:00,
2013-01-29 07:54:00,46.5,43.5,29.70,ESE,113,0.0,0.0,89,0.00,,,0.00,WUHU216HW,2013-01-29 12:54:00,
2013-01-29 07:59:00,46.9,43.9,29.70,SSW,203,0.0,0.0,89,0.00,,,0.00,WUHU216HW,2013-01-29 12:59:00,
2013-01-29 08:04:00,47.1,44.0,29.70,SSW,203,0.0,0.0,89,0.00,,,0.00,WUHU216HW,2013-01-29 13:04:00,
2013-01-29 08:09:00,47.4,44.7,29.71,SSW,203,0.0,0.0,90,0.00,,,0.00,WUHU216HW,2013-01-29 13:09:00,
2013-01-29 08:14:00,47.8,45.3,29.71,SSW,203,0.0,0.0,90,0.00,,,0.00,WUHU216HW,2013-01-29 13:14:00,
2013-01-29 08:19:00,48.3,45.6,29.71,SSW,203,0.0,0.0,90,0.00,,,0.00,WUHU216HW,2013-01-29 13:19:00,
2013-01-29 08:24:00,48.7,45.9,29.72,SSW,203,0.0,0.0,90,0.00,,,0.00,WUHU216HW,2013-01-29 13:24:00,
2013-01-29 08:29:00,49.1,46.3,29.71,SSW,203,0.0,0.0,90,0.00,,,0.00,WUHU216HW,2013-01-29 13:29:00,
2013-01-29 08:34:00,49.6,46.9,29.71,South,180,0.0,0.0,90,0.00,,,0.00,WUHU216HW,2013-01-29 13:34:00,
2013-01-29 08:39:00,50.1,47.3,29.71,South,180,0.0,0.0,90,0.00,,,0.00,WUHU216HW,2013-01-29 13:39:00,
2013-01-29 08:44:00,50.5,47.6,29.71,East,90,0.0,0.0,90,0.00,,,0.00,WUHU216HW,2013-01-29 13:44:00,
2013-01-29 08:49:00,51.0,48.2,29.71,ENE,68,0.0,0.0,90,0.00,,,0.00,WUHU216HW,2013-01-29 13:49:00,
2013-01-29 08:54:00,51.8,48.9,29.71,ENE,68,0.0,0.0,90,0.00,,,0.00,WUHU216HW,2013-01-29 13:54:00,
2013-01-29 08:59:00,52.5,49.6,29.71,ENE,68,0.0,0.0,90,0.00,,,0.00,WUHU216HW,2013-01-29 13:59:00,
2013-01-29 09:04:00,53.0,49.8,29.71,SE,135,0.0,0.0,89,0.00,,,0.00,WUHU216HW,2013-01-29 14:04:00,
2013-01-29 09:09:00,53.6,50.4,29.71,SSE,158,0.0,0.0,89,0.00,,,0.00,WUHU216HW,2013-01-29 14:09:00,
2013-01-29 09:14:00,53.9,50.4,29.71,ESE,113,0.0,0.0,88,0.00,,,0.00,WUHU216HW,2013-01-29 14:14:00,
2013-01-29 09:19:00,54.5,50.6,29.71,ESE,113,0.0,0.4,87,0.00,,,0.00,WUHU216HW,2013-01-29 14:19:00,
2013-01-29 09:24:00,55.0,51.1,29.71,SSE,158,0.0,0.4,87,0.00,,,0.00,WUHU216HW,2013-01-29 14:24:00,
2013-01-29 09:29:00,55.5,51.4,29.71,SSE,158,0.0,0.0,86,0.00,,,0.00,WUHU216HW,2013-01-29 14:29:00,
2013-01-29 09:34:00,55.9,51.4,29.72,SSE,158,0.0,0.0,85,0.00,,,0.00,WUHU216HW,2013-01-29 14:34:00,
2013-01-29 09:39:00,56.1,51.6,29.71,SSE,158,0.0,0.0,85,0.00,,,0.00,WUHU216HW,2013-01-29 14:39:00,
2013-01-29 09:45:00,56.4,51.6,29.71,SSE,158,0.0,0.0,84,0.00,,,0.00,WUHU216HW,2013-01-29 14:45:00,
2013-01-29 09:50:00,57.0,51.8,29.71,SE,135,0.0,0.0,83,0.00,,,0.00,WUHU216HW,2013-01-29 14:50:00,
2013-01-29 09:55:00,57.7,52.5,29.71,SE,135,0.0,0.0,83,0.00,,,0.00,WUHU216HW,2013-01-29 14:55:00,
2013-01-29 10:00:00,58.8,53.3,29.72,SE,135,0.0,0.0,82,0.00,,,0.00,WUHU216HW,2013-01-29 15:00:00,
2013-01-29 10:05:00,59.3,53.2,29.71,SE,135,0.0,0.0,80,0.00,,,0.00,WUHU216HW,2013-01-29 15:05:00,
2013-01-29 10:10:00,59.5,53.0,29.71,SE,135,0.0,0.0,79,0.00,,,0.00,WUHU216HW,2013-01-29 15:10:00,
2013-01-29 10:15:00,59.7,53.2,29.71,SE,135,0.0,0.0,79,0.00,,,0.00,WUHU216HW,2013-01-29 15:15:00,
2013-01-29 10:20:00,60.6,54.1,29.71,SE,135,0.0,0.0,79,0.00,,,0.00,WUHU216HW,2013-01-29 15:20:00,
2013-01-29 10:25:00,61.5,54.7,29.71,SE,135,0.0,0.0,78,0.00,,,0.00,WUHU216HW,2013-01-29 15:25:00,
2013-01-29 10:30:00,62.4,54.8,29.71,SE,135,0.0,0.0,76,0.00,,,0.00,WUHU216HW,2013-01-29 15:30:00,
2013-01-29 10:35:00,63.6,55.5,29.71,SSE,158,0.0,0.0,75,0.00,,,0.00,WUHU216HW,2013-01-29 15:35:00,
2013-01-29 10:40:00,64.2,55.0,29.71,SW,225,0.0,0.0,72,0.00,,,0.00,WUHU216HW,2013-01-29 15:40:00,
2013-01-29 10:45:00,64.9,55.7,29.71,SW,225,0.0,0.0,72,0.00,,,0.00,WUHU216HW,2013-01-29 15:45:00,
2013-01-29 10:50:00,65.4,54.8,29.71,SW,225,0.0,0.0,69,0.00,,,0.00,WUHU216HW,2013-01-29 15:50:00,
2013-01-29 10:55:00,65.4,55.0,29.70,SW,225,0.0,0.0,69,0.00,,,0.00,WUHU216HW,2013-01-29 15:55:00,
2013-01-29 11:00:00,66.0,55.9,29.70,SW,225,0.0,0.0,70,0.00,,,0.00,WUHU216HW,2013-01-29 16:00:00,
2013-01-29 11:05:00,66.9,55.9,29.70,SW,225,0.0,0.0,68,0.00,,,0.00,WUHU216HW,2013-01-29 16:05:00,
2013-01-29 11:10:00,67.1,55.7,29.70,SW,225,0.0,0.0,67,0.00,,,0.00,WUHU216HW,2013-01-29 16:10:00,
2013-01-29 11:15:00,66.9,55.1,29.70,SW,225,0.0,0.0,66,0.00,,,0.00,WUHU216HW,2013-01-29 16:15:00,
2013-01-29 11:20:00,66.7,54.9,29.70,SW,225,0.0,0.8,66,0.00,,,0.00,WUHU216HW,2013-01-29 16:20:00,
2013-01-29 11:25:00,66.5,54.8,29.70,SW,225,0.0,0.8,66,0.00,,,0.00,WUHU216HW,2013-01-29 16:25:00,
2013-01-29 11:30:00,66.3,54.6,29.69,SW,225,0.0,0.0,66,0.00,,,0.00,WUHU216HW,2013-01-29 16:30:00,
2013-01-29 11:35:00,66.0,54.2,29.69,WSW,248,0.0,2.2,66,0.00,,,0.00,WUHU216HW,2013-01-29 16:35:00,
2013-01-29 11:40:00,66.0,54.2,29.70,SW,225,0.0,2.4,66,0.00,,,0.00,WUHU216HW,2013-01-29 16:40:00,
2013-01-29 11:45:00,65.8,54.1,29.69,South,180,0.0,2.4,66,0.00,,,0.00,WUHU216HW,2013-01-29 16:45:00,
2013-01-29 11:50:00,65.8,54.5,29.68,SW,225,0.0,0.0,67,0.00,,,0.00,WUHU216HW,2013-01-29 16:50:00,
2013-01-29 11:55:00,65.8,54.5,29.68,SSW,203,0.0,0.0,67,0.00,,,0.00,WUHU216HW,2013-01-29 16:55:00,
2013-01-29 12:00:00,65.8,54.5,29.68,South,180,0.0,3.5,67,0.00,,,0.00,WUHU216HW,2013-01-29 17:00:00,
2013-01-29 12:05:00,66.0,54.6,29.67,South,180,0.0,3.5,67,0.00,,,0.00,WUHU216HW,2013-01-29 17:05:00,
2013-01-29 12:10:00,66.7,55.4,29.67,South,180,0.0,2.6,67,0.00,,,0.00,WUHU216HW,2013-01-29 17:10:00,
2013-01-29 12:15:00,66.9,55.1,29.67,South,180,0.0,2.4,66,0.00,,,0.00,WUHU216HW,2013-01-29 17:15:00,
2013-01-29 12:20:00,67.1,55.3,29.66,South,180,0.0,2.4,66,0.00,,,0.00,WUHU216HW,2013-01-29 17:20:00,
2013-01-29 12:26:00,67.1,54.8,29.65,ESE,113,1.5,3.5,65,0.00,,,0.00,WUHU216HW,2013-01-29 17:26:00,
2013-01-29 12:31:00,67.1,54.8,29.66,SSW,203,0.0,3.5,65,0.00,,,0.00,WUHU216HW,2013-01-29 17:31:00,
2013-01-29 12:36:00,67.2,55.0,29.66,SSW,203,0.0,0.0,65,0.00,,,0.00,WUHU216HW,2013-01-29 17:36:00,
2013-01-29 12:41:00,67.8,55.1,29.66,SSW,203,0.0,0.0,64,0.00,,,0.00,WUHU216HW,2013-01-29 17:41:00,
2013-01-29 12:46:00,68.1,55.4,29.65,ESE,113,0.0,1.1,64,0.00,,,0.00,WUHU216HW,2013-01-29 17:46:00,
2013-01-29 12:51:00,68.9,55.7,29.64,ESE,113,0.0,1.1,63,0.00,,,0.00,WUHU216HW,2013-01-29 17:51:00,
2013-01-29 12:56:00,69.4,55.8,29.64,ESE,113,0.0,0.0,62,0.00,,,0.00,WUHU216HW,2013-01-29 17:56:00,
2013-01-29 13:01:00,69.8,55.8,29.65,ESE,113,0.0,0.0,61,0.00,,,0.00,WUHU216HW,2013-01-29 18:01:00,
2013-01-29 13:06:00,70.1,55.7,29.64,South,180,2.2,2.2,60,0.00,,,0.00,WUHU216HW,2013-01-29 18:06:00,
2013-01-29 13:11:00,70.3,55.8,29.64,SE,135,0.0,2.2,60,0.00,,,0.00,WUHU216HW,2013-01-29 18:11:00,
2013-01-29 13:16:00,70.7,56.2,29.64,SE,135,0.0,0.0,60,0.00,,,0.00,WUHU216HW,2013-01-29 18:16:00,
2013-01-29 13:21:00,71.4,56.8,29.63,SE,135,0.0,0.0,60,0.00,,,0.00,WUHU216HW,2013-01-29 18:21:00,
2013-01-29 13:26:00,72.1,56.8,29.63,South,180,0.0,1.5,59,0.00,,,0.00,WUHU216HW,2013-01-29 18:26:00,
2013-01-29 13:31:00,72.3,56.1,29.64,South,180,0.0,1.5,57,0.00,,,0.00,WUHU216HW,2013-01-29 18:31:00,
2013-01-29 13:36:00,72.1,56.4,29.63,SE,135,0.0,1.3,58,0.00,,,0.00,WUHU216HW,2013-01-29 18:36:00,
2013-01-29 13:41:00,72.3,56.1,29.63,SE,135,0.0,0.0,57,0.00,,,0.00,WUHU216HW,2013-01-29 18:41:00,
2013-01-29 13:46:00,72.6,56.4,29.63,SE,135,0.0,2.9,57,0.00,,,0.00,WUHU216HW,2013-01-29 18:46:00,
2013-01-29 13:51:00,73.0,56.8,29.62,ESE,113,0.0,2.9,57,0.00,,,0.00,WUHU216HW,2013-01-29 18:51:00,
2013-01-29 13:56:00,73.4,56.6,29.62,SSE,158,4.0,4.2,56,0.00,,,0.00,WUHU216HW,2013-01-29 18:56:00,
2013-01-29 14:01:00,73.5,56.3,29.62,SSE,158,0.0,4.2,55,0.00,,,0.00,WUHU216HW,2013-01-29 19:01:00,
2013-01-29 14:06:00,73.9,56.6,29.62,ESE,113,0.0,3.3,55,0.00,,,0.00,WUHU216HW,2013-01-29 19:06:00,
2013-01-29 14:11:00,73.9,56.1,29.62,SSE,158,3.8,4.6,54,0.00,,,0.00,WUHU216HW,2013-01-29 19:11:00,
2013-01-29 14:16:00,73.4,55.6,29.62,East,90,0.0,5.8,54,0.00,,,0.00,WUHU216HW,2013-01-29 19:16:00,
2013-01-29 14:21:00,73.0,55.2,29.62,SE,135,4.4,6.4,54,0.00,,,0.00,WUHU216HW,2013-01-29 19:21:00,
2013-01-29 14:26:00,72.5,54.8,29.62,ESE,113,0.0,7.8,54,0.00,,,0.00,WUHU216HW,2013-01-29 19:26:00,
2013-01-29 14:31:00,71.9,54.8,29.62,SE,135,5.3,8.9,55,0.00,,,0.00,WUHU216HW,2013-01-29 19:31:00,
2013-01-29 14:36:00,71.7,54.6,29.62,SE,135,2.9,8.9,55,0.00,,,0.00,WUHU216HW,2013-01-29 19:36:00,
2013-01-29 14:41:00,71.6,55.0,29.62,SE,135,0.0,6.2,56,0.00,,,0.00,WUHU216HW,2013-01-29 19:41:00,
2013-01-29 14:46:00,71.6,55.0,29.62,South,180,0.0,5.8,56,0.00,,,0.00,WUHU216HW,2013-01-29 19:46:00,
2013-01-29 14:51:00,71.2,54.6,29.62,SSE,158,0.0,5.8,56,0.00,,,0.00,WUHU216HW,2013-01-29 19:51:00,
2013-01-29 14:56:00,71.2,54.6,29.62,SE,135,5.5,7.8,56,0.00,,,0.00,WUHU216HW,2013-01-29 19:56:00,
2013-01-29 15:00:00,70.8,54.3,29.62,East,90,0.0,7.8,56,0.00,,,0.00,WUHU216HW,2013-01-29 20:00:00,
2013-01-29 15:05:00,70.7,54.1,29.62,ESE,113,6.4,6.4,56,0.00,,,0.00,WUHU216HW,2013-01-29 20:05:00,
2013-01-29 15:10:00,69.9,54.0,29.61,East,90,2.9,6.4,57,0.00,,,0.00,WUHU216HW,2013-01-29 20:10:00,
2013-01-29 15:15:00,69.4,53.5,29.61,East,90,6.2,6.2,57,0.00,,,0.00,WUHU216HW,2013-01-29 20:15:00,
2013-01-29 15:20:00,68.7,53.3,29.61,ESE,113,0.0,6.4,58,0.00,,,0.00,WUHU216HW,2013-01-29 20:20:00,
2013-01-29 15:25:00,68.3,52.9,29.62,SE,135,0.0,6.4,58,0.00,,,0.00,WUHU216HW,2013-01-29 20:25:00,
2013-01-29 15:30:00,67.8,52.9,29.62,ESE,113,0.0,5.3,59,0.00,,,0.00,WUHU216HW,2013-01-29 20:30:00,
2013-01-29 15:35:00,67.8,52.9,29.61,ESE,113,4.9,7.3,59,0.00,,,0.00,WUHU216HW,2013-01-29 20:35:00,
2013-01-29 15:40:00,67.6,53.2,29.61,SE,135,0.0,7.8,60,0.00,,,0.00,WUHU216HW,2013-01-29 20:40:00,
2013-01-29 15:46:00,67.4,53.1,29.61,ENE,68,0.0,7.8,60,0.00,,,0.00,WUHU216HW,2013-01-29 20:46:00,
2013-01-29 15:51:00,67.2,52.9,29.62,SE,135,5.5,5.5,60,0.00,,,0.00,WUHU216HW,2013-01-29 20:51:00,
2013-01-29 15:56:00,67.1,53.2,29.61,SE,135,0.0,5.5,61,0.00,,,0.00,WUHU216HW,2013-01-29 20:56:00,
2013-01-29 16:01:00,67.1,53.0,29.61,ENE,68,0.0,5.1,61,0.00,,,0.00,WUHU216HW,2013-01-29 21:01:00,
2013-01-29 16:06:00,67.2,53.3,29.61,ESE,113,4.4,8.7,61,0.00,,,0.00,WUHU216HW,2013-01-29 21:06:00,
2013-01-29 16:11:00,67.4,53.5,29.61,SE,135,0.0,8.7,61,0.00,,,0.00,WUHU216HW,2013-01-29 21:11:00,
2013-01-29 16:16:00,67.2,52.9,29.60,ESE,113,4.0,9.6,60,0.00,,,0.00,WUHU216HW,2013-01-29 21:16:00,
2013-01-29 16:21:00,67.2,53.3,29.60,SE,135,0.0,9.6,61,0.00,,,0.00,WUHU216HW,2013-01-29 21:21:00,
2013-01-29 16:26:00,67.2,53.3,29.60,North,0,0.0,6.7,61,0.00,,,0.00,WUHU216HW,2013-01-29 21:26:00,
2013-01-29 16:31:00,67.2,52.9,29.60,ESE,113,13.4,13.4,60,0.00,,,0.00,WUHU216HW,2013-01-29 21:31:00,
2013-01-29 16:36:00,67.2,52.9,29.60,ESE,113,9.1,13.4,60,0.00,,,0.00,WUHU216HW,2013-01-29 21:36:00,
2013-01-29 16:41:00,67.1,52.7,29.60,SE,135,0.0,14.9,60,0.00,,,0.00,WUHU216HW,2013-01-29 21:41:00,
2013-01-29 16:46:00,67.1,53.2,29.61,SE,135,10.9,14.9,61,0.00,,,0.00,WUHU216HW,2013-01-29 21:46:00,
2013-01-29 16:51:00,66.9,53.0,29.60,East,90,0.0,12.5,61,0.00,,,0.00,WUHU216HW,2013-01-29 21:51:00,
2013-01-29 16:56:00,66.5,52.7,29.60,ESE,113,9.8,12.5,61,0.00,,,0.00,WUHU216HW,2013-01-29 21:56:00,
2013-01-29 17:01:00,66.3,52.5,29.60,ESE,113,7.3,12.3,61,0.00,,,0.00,WUHU216HW,2013-01-29 22:01:00,
2013-01-29 17:06:00,66.0,52.2,29.60,ESE,113,6.9,9.3,61,0.00,,,0.00,WUHU216HW,2013-01-29 22:06:00,
2013-01-29 17:11:00,65.6,52.2,29.60,East,90,5.5,14.9,62,0.00,,,0.00,WUHU216HW,2013-01-29 22:11:00,
2013-01-29 17:16:00,65.3,51.9,29.60,SE,135,3.3,14.9,62,0.00,,,0.00,WUHU216HW,2013-01-29 22:16:00,
2013-01-29 17:21:00,64.9,51.9,29.60,ESE,113,0.0,12.9,63,0.00,,,0.00,WUHU216HW,2013-01-29 22:21:00,
2013-01-29 17:26:00,64.7,51.8,29.61,East,90,7.8,9.8,63,0.00,,,0.00,WUHU216HW,2013-01-29 22:26:00,
2013-01-29 17:31:00,64.5,52.0,29.60,SE,135,0.0,7.8,64,0.00,,,0.00,WUHU216HW,2013-01-29 22:31:00,
2013-01-29 17:36:00,64.2,51.7,29.60,ENE,68,4.9,7.1,64,0.00,,,0.00,WUHU216HW,2013-01-29 22:36:00,
2013-01-29 17:41:00,64.2,51.7,29.61,ESE,113,4.0,8.7,64,0.00,,,0.00,WUHU216HW,2013-01-29 22:41:00,
2013-01-29 17:46:00,64.0,51.5,29.60,ESE,113,0.0,8.7,64,0.00,,,0.00,WUHU216HW,2013-01-29 22:46:00,
2013-01-29 17:51:00,64.0,51.5,29.59,East,90,5.3,8.5,64,0.00,,,0.00,WUHU216HW,2013-01-29 22:51:00,
2013-01-29 17:56:00,64.0,51.9,29.60,ESE,113,10.7,10.7,65,0.00,,,0.00,WUHU216HW,2013-01-29 22:56:00,
2013-01-29 18:01:00,64.0,51.9,29.60,ESE,113,10.5,10.7,65,0.00,,,0.00,WUHU216HW,2013-01-29 23:01:00,
2013-01-29 18:06:00,64.0,51.9,29.59,ESE,113,8.2,10.5,65,0.00,,,0.00,WUHU216HW,2013-01-29 23:06:00,
2013-01-29 18:12:00,63.6,51.6,29.60,SSW,203,5.1,8.2,65,0.00,,,0.00,WUHU216HW,2013-01-29 23:12:00,
2013-01-29 18:17:00,63.6,51.2,29.60,East,90,0.0,9.1,64,0.00,,,0.00,WUHU216HW,2013-01-29 23:17:00,
2013-01-29 18:22:00,63.5,51.4,29.60,SE,135,0.0,9.1,65,0.00,,,0.00,WUHU216HW,2013-01-29 23:22:00,
2013-01-29 18:27:00,63.5,51.4,29.60,ESE,113,12.9,12.9,65,0.00,,,0.00,WUHU216HW,2013-01-29 23:27:00,
2013-01-29 18:32:00,63.5,51.4,29.60,SE,135,7.3,12.9,65,0.00,,,0.00,WUHU216HW,2013-01-29 23:32:00,
2013-01-29 18:37:00,63.3,51.3,29.60,ESE,113,3.1,13.8,65,0.00,,,0.00,WUHU216HW,2013-01-29 23:37:00,
2013-01-29 18:42:00,63.3,51.3,29.60,ESE,113,7.3,13.8,65,0.00,,,0.00,WUHU216HW,2013-01-29 23:42:00,
2013-01-29 18:47:00,63.3,51.3,29.60,ESE,113,0.0,10.9,65,0.00,,,0.00,WUHU216HW,2013-01-29 23:47:00,
2013-01-29 18:52:00,63.3,51.1,29.60,ESE,113,10.0,13.1,65,0.00,,,0.00,WUHU216HW,2013-01-29 23:52:00,
2013-01-29 18:57:00,63.1,51.1,29.60,ENE,68,9.1,13.4,65,0.00,,,0.00,WUHU216HW,2013-01-29 23:57:00,
2013-01-29 19:02:00,63.1,51.1,29.59,East,90,7.8,13.4,65,0.00,,,0.00,WUHU216HW,2013-01-30 00:02:00,
2013-01-29 19:07:00,62.9,51.3,29.60,ESE,113,6.2,13.1,66,0.00,,,0.00,WUHU216HW,2013-01-30 00:07:00,
2013-01-29 19:12:00,62.7,51.2,29.60,SE,135,7.8,13.1,66,0.00,,,0.00,WUHU216HW,2013-01-30 00:12:00,
2013-01-29 19:17:00,62.7,51.2,29.60,ESE,113,11.1,12.0,66,0.00,,,0.00,WUHU216HW,2013-01-30 00:17:00,
2013-01-29 19:22:00,62.7,51.2,29.60,ENE,68,0.0,12.0,66,0.00,,,0.00,WUHU216HW,2013-01-30 00:22:00,
2013-01-29 19:28:00,62.7,51.2,29.59,ESE,113,10.5,10.5,66,0.00,,,0.00,WUHU216HW,2013-01-30 00:28:00,
2013-01-29 19:33:00,62.6,51.0,29.59,SE,135,7.8,10.5,66,0.00,,,0.00,WUHU216HW,2013-01-30 00:33:00,
2013-01-29 19:38:00,62.4,50.8,29.59,SE,135,3.3,15.2,66,0.00,,,0.00,WUHU216HW,2013-01-30 00:38:00,
2013-01-29 19:43:00,62.4,51.2,29.59,South,180,0.0,15.2,67,0.00,,,0.00,WUHU216HW,2013-01-30 00:43:00,
2013-01-29 19:48:00,62.4,51.2,29.59,SSE,158,0.0,9.6,67,0.00,,,0.00,WUHU216HW,2013-01-30 00:48:00,
2013-01-29 19:53:00,62.2,51.1,29.59,SE,135,0.0,6.7,67,0.00,,,0.00,WUHU216HW,2013-01-30 00:53:00,
2013-01-29 19:58:00,62.0,50.9,29.59,ESE,113,5.3,6.7,67,0.00,,,0.00,WUHU216HW,2013-01-30 00:58:00,
2013-01-29 20:03:00,61.8,51.2,29.60,ESE,113,5.8,8.0,68,0.00,,,0.00,WUHU216HW,2013-01-30 01:03:00,
2013-01-29 20:08:00,61.8,50.8,29.59,ESE,113,7.3,8.0,67,0.00,,,0.00,WUHU216HW,2013-01-30 01:08:00,
2013-01-29 20:13:00,61.8,51.2,29.59,SE,135,6.9,8.5,68,0.00,,,0.00,WUHU216HW,2013-01-30 01:13:00,
2013-01-29 20:18:00,61.8,51.2,29.59,SE,135,2.6,8.5,68,0.00,,,0.00,WUHU216HW,2013-01-30 01:18:00,
2013-01-29 20:23:00,61.8,51.2,29.59,ESE,113,2.9,7.1,68,0.00,,,0.00,WUHU216HW,2013-01-30 01:23:00,
2013-01-29 20:28:00,61.8,51.2,29.60,South,180,0.0,6.9,68,0.00,,,0.00,WUHU216HW,2013-01-30 01:28:00,
2013-01-29 20:33:00,61.7,51.0,29.60,ESE,113,0.0,4.0,68,0.00,,,0.00,WUHU216HW,2013-01-30 01:33:00,
2013-01-29 20:38:00,61.5,50.9,29.59,SSE,158,4.4,8.2,68,0.00,,,0.00,WUHU216HW,2013-01-30 01:38:00,
2013-01-29 20:43:00,61.5,50.9,29.59,SSE,158,0.0,8.2,68,0.00,,,0.00,WUHU216HW,2013-01-30 01:43:00,
2013-01-29 20:48:00,61.3,51.1,29.59,SE,135,4.9,5.5,69,0.00,,,0.00,WUHU216HW,2013-01-30 01:48:00,
2013-01-29 20:53:00,61.1,50.9,29.59,ESE,113,11.1,11.1,69,0.00,,,0.00,WUHU216HW,2013-01-30 01:53:00,
2013-01-29 20:58:00,60.9,50.8,29.59,ESE,113,0.0,13.1,69,0.00,,,0.00,WUHU216HW,2013-01-30 01:58:00,
2013-01-29 21:03:00,60.9,51.2,29.59,East,90,4.6,13.1,70,0.00,,,0.00,WUHU216HW,2013-01-30 02:03:00,
2013-01-29 21:08:00,60.9,51.2,29.59,SSE,158,4.4,13.4,70,0.00,,,0.00,WUHU216HW,2013-01-30 02:08:00,
2013-01-29 21:13:00,60.8,51.0,29.59,SE,135,0.0,13.4,70,0.00,,,0.00,WUHU216HW,2013-01-30 02:13:00,
2013-01-29 21:18:00,60.6,50.9,29.59,ESE,113,0.0,0.0,70,0.00,,,0.00,WUHU216HW,2013-01-30 02:18:00,
2013-01-29 21:23:00,60.6,50.9,29.59,SE,135,0.0,6.7,70,0.00,,,0.00,WUHU216HW,2013-01-30 02:23:00,
2013-01-29 21:28:00,60.6,50.9,29.59,SE,135,2.4,6.7,70,0.00,,,0.00,WUHU216HW,2013-01-30 02:28:00,
2013-01-29 21:33:00,60.9,51.2,29.58,SE,135,0.0,9.8,70,0.00,,,0.00,WUHU216HW,2013-01-30 02:33:00,
2013-01-29 21:38:00,60.9,51.2,29.58,SSE,158,0.0,9.8,70,0.00,,,0.00,WUHU216HW,2013-01-30 02:38:00,
2013-01-29 21:43:00,60.9,51.2,29.59,ESE,113,6.0,6.0,70,0.00,,,0.00,WUHU216HW,2013-01-30 02:43:00,
2013-01-29 21:48:00,60.9,51.2,29.59,SE,135,0.0,10.5,70,0.00,,,0.00,WUHU216HW,2013-01-30 02:48:00,
2013-01-29 21:53:00,60.9,51.2,29.59,SE,135,0.0,10.5,70,0.00,,,0.00,WUHU216HW,2013-01-30 02:53:00,
2013-01-29 21:58:00,60.9,51.2,29.59,East,90,0.0,7.6,70,0.00,,,0.00,WUHU216HW,2013-01-30 02:58:00,
2013-01-29 22:03:00,60.9,51.2,29.58,ENE,68,0.0,7.8,70,0.00,,,0.00,WUHU216HW,2013-01-30 03:03:00,
2013-01-29 22:08:00,61.1,51.4,29.58,South,180,2.2,8.2,70,0.00,,,0.00,WUHU216HW,2013-01-30 03:08:00,
2013-01-29 22:13:00,61.5,51.3,29.58,SE,135,12.7,12.7,69,0.00,,,0.00,WUHU216HW,2013-01-30 03:13:00,
2013-01-29 22:18:00,61.7,51.0,29.58,ESE,113,0.0,12.7,68,0.00,,,0.00,WUHU216HW,2013-01-30 03:18:00,
2013-01-29 22:23:00,61.7,51.0,29.57,East,90,0.0,10.2,68,0.00,,,0.00,WUHU216HW,2013-01-30 03:23:00,
2013-01-29 22:28:00,61.5,50.9,29.57,SSE,158,12.9,12.9,68,0.00,,,0.00,WUHU216HW,2013-01-30 03:28:00,
2013-01-29 22:33:00,61.3,50.7,29.57,ESE,113,14.3,14.3,68,0.00,,,0.00,WUHU216HW,2013-01-30 03:33:00,
2013-01-29 22:38:00,60.8,50.6,29.57,East,90,5.8,14.3,69,0.00,,,0.00,WUHU216HW,2013-01-30 03:38:00,
2013-01-29 22:43:00,60.4,50.3,29.58,ESE,113,4.2,13.1,69,0.00,,,0.00,WUHU216HW,2013-01-30 03:43:00,
2013-01-29 22:48:00,60.4,50.7,29.57,ESE,113,10.5,13.1,70,0.00,,,0.00,WUHU216HW,2013-01-30 03:48:00,
2013-01-29 22:53:00,60.0,50.3,29.57,SE,135,0.0,10.5,70,0.00,,,0.00,WUHU216HW,2013-01-30 03:53:00,
2013-01-29 22:58:00,60.0,50.3,29.57,SE,135,9.1,9.6,70,0.00,,,0.00,WUHU216HW,2013-01-30 03:58:00,
2013-01-29 23:03:00,59.9,50.1,29.57,ESE,113,14.5,14.5,70,0.00,,,0.00,WUHU216HW,2013-01-30 04:03:00,
2013-01-29 23:08:00,59.7,50.3,29.57,ESE,113,4.4,14.5,71,0.00,,,0.00,WUHU216HW,2013-01-30 04:08:00,
2013-01-29 23:13:00,59.5,50.1,29.57,SE,135,10.7,12.9,71,0.00,,,0.00,WUHU216HW,2013-01-30 04:13:00,
2013-01-29 23:18:00,59.5,50.5,29.56,ENE,68,3.1,13.8,72,0.00,,,0.00,WUHU216HW,2013-01-30 04:18:00,
2013-01-29 23:23:00,59.1,50.1,29.56,East,90,7.1,13.8,72,0.00,,,0.00,WUHU216HW,2013-01-30 04:23:00,
2013-01-29 23:28:00,58.8,49.8,29.56,ESE,113,5.3,13.1,72,0.00,,,0.00,WUHU216HW,2013-01-30 04:28:00,
2013-01-29 23:33:00,58.8,49.8,29.56,ESE,113,0.0,13.1,72,0.00,,,0.00,WUHU216HW,2013-01-30 04:33:00,
2013-01-29 23:38:00,58.8,49.8,29.55,SE,135,0.0,11.6,72,0.00,,,0.00,WUHU216HW,2013-01-30 04:38:00,
2013-01-29 23:43:00,58.8,50.1,29.56,SE,135,0.0,11.6,73,0.00,,,0.00,WUHU216HW,2013-01-30 04:43:00,
2013-01-29 23:48:00,58.8,50.1,29.56,SE,135,2.9,9.1,73,0.00,,,0.00,WUHU216HW,2013-01-30 04:48:00,
2013-01-29 23:53:00,58.6,50.0,29.56,ESE,113,0.0,2.9,73,0.00,,,0.00,WUHU216HW,2013-01-30 04:53:00,
2013-01-29 23:58:00,58.2,49.6,29.57,ENE,68,0.0,6.0,73,0.00,,,0.00,WUHU216HW,2013-01-30 04:58:00,